Aberdeen Gardens, Washington
Current Conditions -  °F | °C
As of 7:00 AM on Saturday 01 Nov 2014 (Local Time) from KHQM Reporting Station
Haze Haze  
Wind Chill: 39°   Ceiling: 100
Heat Index: 39°   Visibility: 1mi
Dew Point: 39°   Wind: 3mph
Humidity: 100%   Direction: 60°ENE
Pressure: 29.87"   Gusts: NA
Location:  47.1445°N, 123.771°W
Report Text: KHQM 011400Z AUTO 06003KT 1SM BR VV001 04/04 A2987 RMK AO2 T00390039
Loading
Personal Weather Stations






























Interactive Weather Map
Tropical Storm Tracking
New forecast layout! Learn more

10-Day Weather Forecast

Advertisements
Track Severe Weather on mobile